sensor_id;sensor_type;location;lat;lon;timestamp;P1;durP1;ratioP1;P2;durP2;ratioP2
10096;SDS011;5087;42.662;23.466;2022-07-12T00:01:52;7.83;;;7.37;;
10096;SDS011;5087;42.662;23.466;2022-07-12T00:04:19;7.03;;;6.73;;
10096;SDS011;5087;42.662;23.466;2022-07-12T00:06:47;8.07;;;7.50;;
10096;SDS011;5087;42.662;23.466;2022-07-12T00:09:14;7.73;;;7.33;;
10096;SDS011;5087;42.662;23.466;2022-07-12T00:11:41;7.50;;;7.00;;
10096;SDS011;5087;42.662;23.466;2022-07-12T00:14:10;6.60;;;6.30;;
10096;SDS011;5087;42.662;23.466;2022-07-12T00:16:37;7.13;;;6.63;;
10096;SDS011;5087;42.662;23.466;2022-07-12T00:19:04;6.90;;;6.60;;
10096;SDS011;5087;42.662;23.466;2022-07-12T00:21:32;7.00;;;6.50;;
10096;SDS011;5087;42.662;23.466;2022-07-12T00:23:59;7.37;;;6.93;;
10096;SDS011;5087;42.662;23.466;2022-07-12T00:26:26;7.20;;;6.70;;
10096;SDS011;5087;42.662;23.466;2022-07-12T00:28:54;7.33;;;6.83;;
10096;SDS011;5087;42.662;23.466;2022-07-12T00:31:24;7.80;;;7.30;;
10096;SDS011;5087;42.662;23.466;2022-07-12T00:33:51;7.60;;;7.10;;
10096;SDS011;5087;42.662;23.466;2022-07-12T00:36:18;7.30;;;6.80;;
10096;SDS011;5087;42.662;23.466;2022-07-12T00:38:46;7.40;;;6.90;;
10096;SDS011;5087;42.662;23.466;2022-07-12T00:41:13;6.73;;;6.40;;
10096;SDS011;5087;42.662;23.466;2022-07-12T00:43:41;6.70;;;6.30;;
10096;SDS011;5087;42.662;23.466;2022-07-12T00:46:08;6.63;;;6.23;;
10096;SDS011;5087;42.662;23.466;2022-07-12T00:48:37;6.90;;;6.40;;
10096;SDS011;5087;42.662;23.466;2022-07-12T00:51:05;6.50;;;6.10;;
10096;SDS011;5087;42.662;23.466;2022-07-12T00:53:32;6.80;;;6.30;;
10096;SDS011;5087;42.662;23.466;2022-07-12T00:56:02;7.17;;;6.67;;
10096;SDS011;5087;42.662;23.466;2022-07-12T00:58:30;7.23;;;6.77;;
10096;SDS011;5087;42.662;23.466;2022-07-12T01:00:57;6.83;;;6.40;;
10096;SDS011;5087;42.662;23.466;2022-07-12T01:03:25;7.70;;;7.00;;
10096;SDS011;5087;42.662;23.466;2022-07-12T01:05:54;7.87;;;7.27;;
10096;SDS011;5087;42.662;23.466;2022-07-12T01:08:22;6.93;;;6.53;;
10096;SDS011;5087;42.662;23.466;2022-07-12T01:10:50;6.70;;;6.30;;
10096;SDS011;5087;42.662;23.466;2022-07-12T01:13:17;7.40;;;6.43;;
10096;SDS011;5087;42.662;23.466;2022-07-12T01:15:45;6.97;;;6.47;;
10096;SDS011;5087;42.662;23.466;2022-07-12T01:18:13;6.93;;;6.43;;
10096;SDS011;5087;42.662;23.466;2022-07-12T01:20:42;7.50;;;6.90;;
10096;SDS011;5087;42.662;23.466;2022-07-12T01:23:11;7.40;;;6.50;;
10096;SDS011;5087;42.662;23.466;2022-07-12T01:25:39;6.97;;;6.17;;
10096;SDS011;5087;42.662;23.466;2022-07-12T01:28:06;6.60;;;6.13;;
10096;SDS011;5087;42.662;23.466;2022-07-12T01:30:33;6.87;;;6.33;;
10096;SDS011;5087;42.662;23.466;2022-07-12T01:33:01;6.97;;;6.37;;
10096;SDS011;5087;42.662;23.466;2022-07-12T01:35:28;9.47;;;6.50;;
10096;SDS011;5087;42.662;23.466;2022-07-12T01:37:57;7.77;;;6.93;;
10096;SDS011;5087;42.662;23.466;2022-07-12T01:40:25;7.93;;;7.23;;
10096;SDS011;5087;42.662;23.466;2022-07-12T01:42:53;8.30;;;7.50;;
10096;SDS011;5087;42.662;23.466;2022-07-12T01:45:21;10.33;;;8.23;;
10096;SDS011;5087;42.662;23.466;2022-07-12T01:47:48;8.47;;;7.50;;
10096;SDS011;5087;42.662;23.466;2022-07-12T01:50:15;8.40;;;7.60;;
10096;SDS011;5087;42.662;23.466;2022-07-12T01:52:42;9.30;;;7.43;;
10096;SDS011;5087;42.662;23.466;2022-07-12T01:55:11;10.27;;;7.87;;
10096;SDS011;5087;42.662;23.466;2022-07-12T01:57:40;9.50;;;7.80;;
10096;SDS011;5087;42.662;23.466;2022-07-12T02:00:10;8.53;;;7.73;;
10096;SDS011;5087;42.662;23.466;2022-07-12T02:02:38;11.77;;;8.20;;
10096;SDS011;5087;42.662;23.466;2022-07-12T02:05:06;9.73;;;8.03;;
10096;SDS011;5087;42.662;23.466;2022-07-12T02:07:33;9.13;;;8.23;;
10096;SDS011;5087;42.662;23.466;2022-07-12T02:10:01;9.23;;;8.10;;
10096;SDS011;5087;42.662;23.466;2022-07-12T02:12:28;9.10;;;8.20;;
10096;SDS011;5087;42.662;23.466;2022-07-12T02:14:56;8.50;;;7.50;;
10096;SDS011;5087;42.662;23.466;2022-07-12T02:17:24;8.20;;;7.37;;
10096;SDS011;5087;42.662;23.466;2022-07-12T02:19:51;8.07;;;7.40;;
10096;SDS011;5087;42.662;23.466;2022-07-12T02:22:18;8.87;;;7.97;;
10096;SDS011;5087;42.662;23.466;2022-07-12T02:24:45;7.77;;;6.97;;
10096;SDS011;5087;42.662;23.466;2022-07-12T02:27:12;6.67;;;6.17;;
10096;SDS011;5087;42.662;23.466;2022-07-12T02:29:40;7.00;;;6.40;;
10096;SDS011;5087;42.662;23.466;2022-07-12T02:32:09;6.70;;;6.20;;
10096;SDS011;5087;42.662;23.466;2022-07-12T02:34:36;6.87;;;6.20;;
10096;SDS011;5087;42.662;23.466;2022-07-12T02:37:04;6.83;;;5.90;;
10096;SDS011;5087;42.662;23.466;2022-07-12T02:39:31;6.77;;;6.23;;
10096;SDS011;5087;42.662;23.466;2022-07-12T02:41:58;7.10;;;6.50;;
10096;SDS011;5087;42.662;23.466;2022-07-12T02:44:25;7.87;;;7.07;;
10096;SDS011;5087;42.662;23.466;2022-07-12T02:46:52;7.40;;;6.80;;
10096;SDS011;5087;42.662;23.466;2022-07-12T02:49:21;8.20;;;7.50;;
10096;SDS011;5087;42.662;23.466;2022-07-12T02:51:48;8.13;;;7.30;;
10096;SDS011;5087;42.662;23.466;2022-07-12T02:54:15;8.53;;;7.23;;
10096;SDS011;5087;42.662;23.466;2022-07-12T02:56:42;7.67;;;6.97;;
10096;SDS011;5087;42.662;23.466;2022-07-12T02:59:10;7.93;;;7.17;;
10096;SDS011;5087;42.662;23.466;2022-07-12T03:01:37;8.37;;;6.73;;
10096;SDS011;5087;42.662;23.466;2022-07-12T03:04:04;9.00;;;7.20;;
10096;SDS011;5087;42.662;23.466;2022-07-12T03:06:33;7.93;;;7.30;;
10096;SDS011;5087;42.662;23.466;2022-07-12T03:09:00;7.77;;;7.07;;
10096;SDS011;5087;42.662;23.466;2022-07-12T03:11:27;9.77;;;7.57;;
10096;SDS011;5087;42.662;23.466;2022-07-12T03:13:54;8.37;;;7.67;;
10096;SDS011;5087;42.662;23.466;2022-07-12T03:16:21;8.87;;;7.97;;
10096;SDS011;5087;42.662;23.466;2022-07-12T03:18:48;8.10;;;7.40;;
10096;SDS011;5087;42.662;23.466;2022-07-12T03:21:16;6.87;;;6.30;;
10096;SDS011;5087;42.662;23.466;2022-07-12T03:23:44;7.87;;;7.27;;
10096;SDS011;5087;42.662;23.466;2022-07-12T03:26:11;8.07;;;7.07;;
10096;SDS011;5087;42.662;23.466;2022-07-12T03:28:39;6.87;;;6.33;;
10096;SDS011;5087;42.662;23.466;2022-07-12T03:31:06;7.37;;;6.80;;
10096;SDS011;5087;42.662;23.466;2022-07-12T03:33:33;6.10;;;5.50;;
10096;SDS011;5087;42.662;23.466;2022-07-12T03:36:01;6.30;;;5.80;;
10096;SDS011;5087;42.662;23.466;2022-07-12T03:38:30;5.93;;;5.43;;
10096;SDS011;5087;42.662;23.466;2022-07-12T03:40:58;6.20;;;5.70;;
10096;SDS011;5087;42.662;23.466;2022-07-12T03:43:26;6.17;;;5.60;;
10096;SDS011;5087;42.662;23.466;2022-07-12T03:45:53;5.73;;;5.20;;
10096;SDS011;5087;42.662;23.466;2022-07-12T03:48:20;6.00;;;5.50;;
10096;SDS011;5087;42.662;23.466;2022-07-12T03:50:47;6.03;;;5.53;;
10096;SDS011;5087;42.662;23.466;2022-07-12T03:53:15;6.00;;;5.43;;
10096;SDS011;5087;42.662;23.466;2022-07-12T03:55:42;5.87;;;5.47;;
10096;SDS011;5087;42.662;23.466;2022-07-12T03:58:11;6.00;;;5.50;;
10096;SDS011;5087;42.662;23.466;2022-07-12T04:00:38;7.43;;;5.50;;
10096;SDS011;5087;42.662;23.466;2022-07-12T04:03:08;6.73;;;6.27;;
10096;SDS011;5087;42.662;23.466;2022-07-12T04:05:35;5.87;;;5.47;;
10096;SDS011;5087;42.662;23.466;2022-07-12T04:08:03;6.10;;;5.70;;
10096;SDS011;5087;42.662;23.466;2022-07-12T04:10:30;6.60;;;6.20;;
10096;SDS011;5087;42.662;23.466;2022-07-12T04:12:58;6.97;;;6.50;;
10096;SDS011;5087;42.662;23.466;2022-07-12T04:15:26;6.40;;;6.00;;
10096;SDS011;5087;42.662;23.466;2022-07-12T04:17:53;6.80;;;6.30;;
10096;SDS011;5087;42.662;23.466;2022-07-12T04:20:20;6.60;;;6.10;;
10096;SDS011;5087;42.662;23.466;2022-07-12T04:22:48;7.40;;;6.53;;
10096;SDS011;5087;42.662;23.466;2022-07-12T04:25:15;7.30;;;6.80;;
10096;SDS011;5087;42.662;23.466;2022-07-12T04:27:43;7.10;;;6.63;;
10096;SDS011;5087;42.662;23.466;2022-07-12T04:30:10;7.13;;;6.63;;
10096;SDS011;5087;42.662;23.466;2022-07-12T04:32:39;7.77;;;7.20;;
10096;SDS011;5087;42.662;23.466;2022-07-12T04:35:06;7.23;;;6.70;;
10096;SDS011;5087;42.662;23.466;2022-07-12T04:37:34;8.23;;;7.40;;
10096;SDS011;5087;42.662;23.466;2022-07-12T04:40:01;7.17;;;6.77;;
10096;SDS011;5087;42.662;23.466;2022-07-12T04:42:28;7.50;;;7.10;;
10096;SDS011;5087;42.662;23.466;2022-07-12T04:44:56;8.23;;;7.73;;
10096;SDS011;5087;42.662;23.466;2022-07-12T04:47:23;8.47;;;7.77;;
10096;SDS011;5087;42.662;23.466;2022-07-12T04:49:52;8.80;;;8.00;;
10096;SDS011;5087;42.662;23.466;2022-07-12T04:52:19;8.87;;;8.07;;
10096;SDS011;5087;42.662;23.466;2022-07-12T04:54:46;8.50;;;7.90;;
10096;SDS011;5087;42.662;23.466;2022-07-12T04:57:14;9.30;;;8.17;;
10096;SDS011;5087;42.662;23.466;2022-07-12T04:59:41;8.80;;;8.10;;
10096;SDS011;5087;42.662;23.466;2022-07-12T05:02:08;9.00;;;8.30;;
10096;SDS011;5087;42.662;23.466;2022-07-12T05:04:35;8.63;;;8.03;;
10096;SDS011;5087;42.662;23.466;2022-07-12T05:07:04;8.00;;;7.50;;
10096;SDS011;5087;42.662;23.466;2022-07-12T05:09:31;7.63;;;7.30;;
10096;SDS011;5087;42.662;23.466;2022-07-12T05:11:59;7.50;;;7.00;;
10096;SDS011;5087;42.662;23.466;2022-07-12T05:14:26;8.57;;;8.03;;
10096;SDS011;5087;42.662;23.466;2022-07-12T05:16:53;8.17;;;7.67;;
10096;SDS011;5087;42.662;23.466;2022-07-12T05:19:20;8.40;;;8.00;;
10096;SDS011;5087;42.662;23.466;2022-07-12T05:21:48;9.10;;;8.40;;
10096;SDS011;5087;42.662;23.466;2022-07-12T05:24:16;8.67;;;8.17;;
10096;SDS011;5087;42.662;23.466;2022-07-12T05:26:44;9.67;;;8.73;;
10096;SDS011;5087;42.662;23.466;2022-07-12T05:29:11;7.83;;;7.43;;
10096;SDS011;5087;42.662;23.466;2022-07-12T05:31:38;8.83;;;8.10;;
10096;SDS011;5087;42.662;23.466;2022-07-12T05:34:06;8.97;;;8.10;;
10096;SDS011;5087;42.662;23.466;2022-07-12T05:36:33;8.77;;;8.07;;
10096;SDS011;5087;42.662;23.466;2022-07-12T05:39:00;8.33;;;7.83;;
10096;SDS011;5087;42.662;23.466;2022-07-12T05:41:29;8.37;;;7.87;;
10096;SDS011;5087;42.662;23.466;2022-07-12T05:43:56;7.77;;;7.27;;
10096;SDS011;5087;42.662;23.466;2022-07-12T05:46:24;8.73;;;8.27;;
10096;SDS011;5087;42.662;23.466;2022-07-12T05:48:52;7.70;;;7.23;;
10096;SDS011;5087;42.662;23.466;2022-07-12T05:51:20;8.53;;;8.07;;
10096;SDS011;5087;42.662;23.466;2022-07-12T05:54:05;8.00;;;7.50;;
10096;SDS011;5087;42.662;23.466;2022-07-12T05:56:33;8.47;;;7.90;;
10096;SDS011;5087;42.662;23.466;2022-07-12T05:59:00;9.00;;;8.30;;
10096;SDS011;5087;42.662;23.466;2022-07-12T06:01:28;8.93;;;8.33;;
10096;SDS011;5087;42.662;23.466;2022-07-12T06:03:55;9.03;;;8.37;;
10096;SDS011;5087;42.662;23.466;2022-07-12T06:06:22;9.37;;;8.57;;
10096;SDS011;5087;42.662;23.466;2022-07-12T06:08:49;9.80;;;9.03;;
10096;SDS011;5087;42.662;23.466;2022-07-12T06:11:16;7.93;;;7.27;;
10096;SDS011;5087;42.662;23.466;2022-07-12T06:30:26;9.67;;;9.17;;
10096;SDS011;5087;42.662;23.466;2022-07-12T06:32:53;9.73;;;9.10;;
10096;SDS011;5087;42.662;23.466;2022-07-12T06:35:20;8.20;;;7.60;;
10096;SDS011;5087;42.662;23.466;2022-07-12T06:37:48;7.70;;;7.20;;
10096;SDS011;5087;42.662;23.466;2022-07-12T06:40:15;7.73;;;7.23;;
10096;SDS011;5087;42.662;23.466;2022-07-12T06:42:43;8.77;;;8.17;;
10096;SDS011;5087;42.662;23.466;2022-07-12T06:45:10;9.53;;;8.73;;
10096;SDS011;5087;42.662;23.466;2022-07-12T06:47:39;7.47;;;6.97;;
10096;SDS011;5087;42.662;23.466;2022-07-12T06:50:07;10.87;;;7.40;;
10096;SDS011;5087;42.662;23.466;2022-07-12T06:52:34;7.57;;;7.17;;
10096;SDS011;5087;42.662;23.466;2022-07-12T06:55:02;7.97;;;7.47;;
10096;SDS011;5087;42.662;23.466;2022-07-12T06:57:30;8.73;;;7.23;;
10096;SDS011;5087;42.662;23.466;2022-07-12T06:59:58;7.67;;;7.20;;
10096;SDS011;5087;42.662;23.466;2022-07-12T07:02:26;6.97;;;6.67;;
10096;SDS011;5087;42.662;23.466;2022-07-12T07:04:55;7.30;;;6.67;;
10096;SDS011;5087;42.662;23.466;2022-07-12T07:07:22;7.43;;;6.90;;
10096;SDS011;5087;42.662;23.466;2022-07-12T07:09:49;7.03;;;6.43;;
10096;SDS011;5087;42.662;23.466;2022-07-12T07:12:16;10.40;;;7.53;;
10096;SDS011;5087;42.662;23.466;2022-07-12T07:14:44;7.30;;;6.70;;
10096;SDS011;5087;42.662;23.466;2022-07-12T07:17:12;6.40;;;6.10;;
10096;SDS011;5087;42.662;23.466;2022-07-12T07:19:41;6.83;;;6.43;;
10096;SDS011;5087;42.662;23.466;2022-07-12T07:22:11;6.73;;;6.23;;
10096;SDS011;5087;42.662;23.466;2022-07-12T07:24:38;6.73;;;6.23;;
10096;SDS011;5087;42.662;23.466;2022-07-12T07:27:06;6.97;;;6.50;;
10096;SDS011;5087;42.662;23.466;2022-07-12T07:29:34;6.50;;;6.10;;
10096;SDS011;5087;42.662;23.466;2022-07-12T07:32:18;5.73;;;5.53;;
10096;SDS011;5087;42.662;23.466;2022-07-12T07:34:46;5.70;;;5.40;;
10096;SDS011;5087;42.662;23.466;2022-07-12T07:37:15;5.50;;;5.20;;
10096;SDS011;5087;42.662;23.466;2022-07-12T07:39:42;6.30;;;5.90;;
10096;SDS011;5087;42.662;23.466;2022-07-12T07:42:10;6.57;;;6.03;;
10096;SDS011;5087;42.662;23.466;2022-07-12T07:44:37;5.67;;;5.27;;
10096;SDS011;5087;42.662;23.466;2022-07-12T07:47:04;4.83;;;4.53;;
10096;SDS011;5087;42.662;23.466;2022-07-12T07:49:32;5.57;;;5.10;;
10096;SDS011;5087;42.662;23.466;2022-07-12T07:51:59;5.10;;;4.80;;
10096;SDS011;5087;42.662;23.466;2022-07-12T07:54:28;4.60;;;4.30;;
10096;SDS011;5087;42.662;23.466;2022-07-12T07:56:55;4.20;;;3.93;;
10096;SDS011;5087;42.662;23.466;2022-07-12T07:59:23;4.00;;;3.80;;
10096;SDS011;5087;42.662;23.466;2022-07-12T08:01:50;5.93;;;4.30;;
10096;SDS011;5087;42.662;23.466;2022-07-12T08:04:19;6.30;;;4.87;;
10096;SDS011;5087;42.662;23.466;2022-07-12T08:06:48;4.40;;;4.10;;
10096;SDS011;5087;42.662;23.466;2022-07-12T08:09:16;5.80;;;4.23;;
10096;SDS011;5087;42.662;23.466;2022-07-12T08:11:45;3.97;;;3.60;;
10096;SDS011;5087;42.662;23.466;2022-07-12T08:14:12;3.77;;;3.57;;
10096;SDS011;5087;42.662;23.466;2022-07-12T08:16:40;4.97;;;3.77;;
10096;SDS011;5087;42.662;23.466;2022-07-12T08:19:07;4.80;;;4.40;;
10096;SDS011;5087;42.662;23.466;2022-07-12T08:21:35;5.07;;;3.47;;
10096;SDS011;5087;42.662;23.466;2022-07-12T08:24:02;3.57;;;3.40;;
10096;SDS011;5087;42.662;23.466;2022-07-12T08:26:30;3.50;;;3.40;;
10096;SDS011;5087;42.662;23.466;2022-07-12T08:28:58;4.10;;;3.70;;
10096;SDS011;5087;42.662;23.466;2022-07-12T08:31:26;4.33;;;3.37;;
10096;SDS011;5087;42.662;23.466;2022-07-12T08:33:53;4.10;;;3.70;;
10096;SDS011;5087;42.662;23.466;2022-07-12T08:36:25;7.37;;;3.70;;
10096;SDS011;5087;42.662;23.466;2022-07-12T08:38:52;3.50;;;3.30;;
10096;SDS011;5087;42.662;23.466;2022-07-12T08:41:19;5.13;;;4.07;;
10096;SDS011;5087;42.662;23.466;2022-07-12T08:43:46;3.53;;;3.40;;
10096;SDS011;5087;42.662;23.466;2022-07-12T08:46:15;4.20;;;4.00;;
10096;SDS011;5087;42.662;23.466;2022-07-12T08:48:42;6.33;;;5.73;;
10096;SDS011;5087;42.662;23.466;2022-07-12T08:51:10;4.43;;;3.47;;
10096;SDS011;5087;42.662;23.466;2022-07-12T08:53:38;3.40;;;3.20;;
10096;SDS011;5087;42.662;23.466;2022-07-12T08:56:06;3.70;;;3.40;;
10096;SDS011;5087;42.662;23.466;2022-07-12T08:59:08;3.57;;;3.20;;
10096;SDS011;5087;42.662;23.466;2022-07-12T09:01:41;4.20;;;3.57;;
10096;SDS011;5087;42.662;23.466;2022-07-12T09:04:09;3.70;;;3.40;;
10096;SDS011;5087;42.662;23.466;2022-07-12T09:06:37;3.67;;;3.47;;
10096;SDS011;5087;42.662;23.466;2022-07-12T09:09:05;3.40;;;3.20;;
10096;SDS011;5087;42.662;23.466;2022-07-12T09:11:35;2.93;;;2.83;;
10096;SDS011;5087;42.662;23.466;2022-07-12T09:14:03;2.97;;;2.80;;
10096;SDS011;5087;42.662;23.466;2022-07-12T09:16:31;3.63;;;3.33;;
10096;SDS011;5087;42.662;23.466;2022-07-12T09:19:13;3.50;;;3.20;;
10096;SDS011;5087;42.662;23.466;2022-07-12T09:21:49;4.37;;;3.00;;
10096;SDS011;5087;42.662;23.466;2022-07-12T09:24:18;3.03;;;2.83;;
10096;SDS011;5087;42.662;23.466;2022-07-12T09:26:45;9.57;;;3.37;;
10096;SDS011;5087;42.662;23.466;2022-07-12T09:29:13;8.07;;;3.10;;
10096;SDS011;5087;42.662;23.466;2022-07-12T09:31:42;2.90;;;2.80;;
10096;SDS011;5087;42.662;23.466;2022-07-12T09:34:44;5.23;;;3.80;;
10096;SDS011;5087;42.662;23.466;2022-07-12T09:37:40;3.27;;;3.07;;
10096;SDS011;5087;42.662;23.466;2022-07-12T09:40:07;2.67;;;2.47;;
10096;SDS011;5087;42.662;23.466;2022-07-12T09:42:35;3.30;;;3.10;;
10096;SDS011;5087;42.662;23.466;2022-07-12T09:45:04;3.23;;;3.00;;
10096;SDS011;5087;42.662;23.466;2022-07-12T09:47:34;3.47;;;3.27;;
10096;SDS011;5087;42.662;23.466;2022-07-12T09:50:04;3.13;;;2.80;;
10096;SDS011;5087;42.662;23.466;2022-07-12T09:52:34;3.03;;;2.93;;
10096;SDS011;5087;42.662;23.466;2022-07-12T09:55:04;3.70;;;3.40;;
10096;SDS011;5087;42.662;23.466;2022-07-12T09:57:34;3.00;;;2.90;;
10096;SDS011;5087;42.662;23.466;2022-07-12T10:00:07;2.80;;;2.70;;
10096;SDS011;5087;42.662;23.466;2022-07-12T10:02:39;3.00;;;2.90;;
10096;SDS011;5087;42.662;23.466;2022-07-12T10:05:10;3.13;;;2.90;;
10096;SDS011;5087;42.662;23.466;2022-07-12T10:07:37;3.33;;;2.97;;
10096;SDS011;5087;42.662;23.466;2022-07-12T10:10:08;4.23;;;3.00;;
10096;SDS011;5087;42.662;23.466;2022-07-12T10:12:37;4.73;;;4.07;;
10096;SDS011;5087;42.662;23.466;2022-07-12T10:15:08;2.50;;;2.30;;
10096;SDS011;5087;42.662;23.466;2022-07-12T10:17:40;2.77;;;2.63;;
10096;SDS011;5087;42.662;23.466;2022-07-12T10:20:16;3.87;;;3.67;;
10096;SDS011;5087;42.662;23.466;2022-07-12T10:22:47;4.53;;;4.10;;
10096;SDS011;5087;42.662;23.466;2022-07-12T10:25:30;4.57;;;4.20;;
10096;SDS011;5087;42.662;23.466;2022-07-12T10:27:59;3.17;;;2.97;;
10096;SDS011;5087;42.662;23.466;2022-07-12T10:30:28;4.20;;;3.10;;
10096;SDS011;5087;42.662;23.466;2022-07-12T10:32:57;3.47;;;3.27;;
10096;SDS011;5087;42.662;23.466;2022-07-12T10:35:28;4.47;;;2.87;;
10096;SDS011;5087;42.662;23.466;2022-07-12T10:38:14;3.00;;;2.80;;
10096;SDS011;5087;42.662;23.466;2022-07-12T10:40:47;5.07;;;3.00;;
10096;SDS011;5087;42.662;23.466;2022-07-12T10:43:28;5.03;;;3.53;;
10096;SDS011;5087;42.662;23.466;2022-07-12T10:46:14;2.73;;;2.63;;
10096;SDS011;5087;42.662;23.466;2022-07-12T10:48:45;3.37;;;3.10;;
10096;SDS011;5087;42.662;23.466;2022-07-12T10:51:15;2.80;;;2.60;;
10096;SDS011;5087;42.662;23.466;2022-07-12T10:53:48;3.37;;;2.70;;
10096;SDS011;5087;42.662;23.466;2022-07-12T10:56:17;2.30;;;2.30;;
10096;SDS011;5087;42.662;23.466;2022-07-12T10:58:46;5.37;;;2.70;;
10096;SDS011;5087;42.662;23.466;2022-07-12T11:01:17;4.40;;;3.27;;
10096;SDS011;5087;42.662;23.466;2022-07-12T11:03:47;2.73;;;2.63;;
10096;SDS011;5087;42.662;23.466;2022-07-12T11:06:18;2.60;;;2.50;;
10096;SDS011;5087;42.662;23.466;2022-07-12T11:08:51;2.80;;;2.60;;
10096;SDS011;5087;42.662;23.466;2022-07-12T11:11:21;3.43;;;2.70;;
10096;SDS011;5087;42.662;23.466;2022-07-12T11:13:50;3.60;;;3.13;;
10096;SDS011;5087;42.662;23.466;2022-07-12T11:16:18;2.87;;;2.60;;
10096;SDS011;5087;42.662;23.466;2022-07-12T11:18:45;3.27;;;3.00;;
10096;SDS011;5087;42.662;23.466;2022-07-12T11:21:16;2.83;;;2.60;;
10096;SDS011;5087;42.662;23.466;2022-07-12T11:23:46;2.90;;;2.80;;
10096;SDS011;5087;42.662;23.466;2022-07-12T11:26:13;2.97;;;2.77;;
10096;SDS011;5087;42.662;23.466;2022-07-12T11:28:41;3.03;;;2.80;;
10096;SDS011;5087;42.662;23.466;2022-07-12T11:31:11;3.47;;;3.07;;
10096;SDS011;5087;42.662;23.466;2022-07-12T11:33:40;2.77;;;2.67;;
10096;SDS011;5087;42.662;23.466;2022-07-12T11:36:09;2.80;;;2.70;;
10096;SDS011;5087;42.662;23.466;2022-07-12T11:38:40;2.80;;;2.70;;
10096;SDS011;5087;42.662;23.466;2022-07-12T11:41:08;2.83;;;2.73;;
10096;SDS011;5087;42.662;23.466;2022-07-12T11:43:37;4.63;;;3.80;;
10096;SDS011;5087;42.662;23.466;2022-07-12T11:46:05;4.47;;;3.63;;
10096;SDS011;5087;42.662;23.466;2022-07-12T11:48:34;3.83;;;3.40;;
10096;SDS011;5087;42.662;23.466;2022-07-12T11:51:05;3.87;;;2.70;;
10096;SDS011;5087;42.662;23.466;2022-07-12T11:53:34;3.90;;;3.60;;
10096;SDS011;5087;42.662;23.466;2022-07-12T11:56:04;3.43;;;3.23;;
10096;SDS011;5087;42.662;23.466;2022-07-12T11:58:35;2.57;;;2.47;;
10096;SDS011;5087;42.662;23.466;2022-07-12T12:01:04;3.23;;;3.00;;
10096;SDS011;5087;42.662;23.466;2022-07-12T12:03:41;3.10;;;2.90;;
10096;SDS011;5087;42.662;23.466;2022-07-12T12:06:10;3.30;;;3.10;;
10096;SDS011;5087;42.662;23.466;2022-07-12T12:08:39;3.57;;;2.90;;
10096;SDS011;5087;42.662;23.466;2022-07-12T12:11:08;2.23;;;2.23;;
10096;SDS011;5087;42.662;23.466;2022-07-12T12:13:35;2.90;;;2.70;;
10096;SDS011;5087;42.662;23.466;2022-07-12T12:16:02;2.50;;;2.40;;
10096;SDS011;5087;42.662;23.466;2022-07-12T12:18:31;2.80;;;2.70;;
10096;SDS011;5087;42.662;23.466;2022-07-12T12:21:01;2.57;;;2.47;;
10096;SDS011;5087;42.662;23.466;2022-07-12T12:23:30;2.80;;;2.70;;
10096;SDS011;5087;42.662;23.466;2022-07-12T12:26:12;4.10;;;3.40;;
10096;SDS011;5087;42.662;23.466;2022-07-12T12:28:42;3.43;;;3.23;;
10096;SDS011;5087;42.662;23.466;2022-07-12T12:31:11;3.10;;;2.90;;
10096;SDS011;5087;42.662;23.466;2022-07-12T12:33:39;2.63;;;2.43;;
10096;SDS011;5087;42.662;23.466;2022-07-12T12:36:12;2.77;;;2.60;;
10096;SDS011;5087;42.662;23.466;2022-07-12T12:38:47;2.93;;;2.50;;
10096;SDS011;5087;42.662;23.466;2022-07-12T12:41:17;10.13;;;3.67;;
10096;SDS011;5087;42.662;23.466;2022-07-12T12:43:48;2.90;;;2.80;;
10096;SDS011;5087;42.662;23.466;2022-07-12T12:46:23;3.37;;;3.20;;
10096;SDS011;5087;42.662;23.466;2022-07-12T12:49:10;4.83;;;3.30;;
10096;SDS011;5087;42.662;23.466;2022-07-12T12:51:50;2.70;;;2.60;;
10096;SDS011;5087;42.662;23.466;2022-07-12T12:54:30;3.87;;;2.60;;
10096;SDS011;5087;42.662;23.466;2022-07-12T12:56:59;2.80;;;2.60;;
10096;SDS011;5087;42.662;23.466;2022-07-12T12:59:27;2.40;;;2.37;;
10096;SDS011;5087;42.662;23.466;2022-07-12T13:01:54;3.30;;;3.10;;
10096;SDS011;5087;42.662;23.466;2022-07-12T13:04:21;2.87;;;2.77;;
10096;SDS011;5087;42.662;23.466;2022-07-12T13:06:48;2.57;;;2.47;;
10096;SDS011;5087;42.662;23.466;2022-07-12T13:09:16;2.80;;;2.63;;
10096;SDS011;5087;42.662;23.466;2022-07-12T13:11:48;2.83;;;2.70;;
10096;SDS011;5087;42.662;23.466;2022-07-12T13:14:17;3.03;;;2.70;;
10096;SDS011;5087;42.662;23.466;2022-07-12T13:16:44;2.87;;;2.60;;
10096;SDS011;5087;42.662;23.466;2022-07-12T13:19:11;2.60;;;2.50;;
10096;SDS011;5087;42.662;23.466;2022-07-12T13:21:38;3.50;;;3.10;;
10096;SDS011;5087;42.662;23.466;2022-07-12T13:24:08;4.87;;;2.90;;
10096;SDS011;5087;42.662;23.466;2022-07-12T13:26:36;3.20;;;3.00;;
10096;SDS011;5087;42.662;23.466;2022-07-12T13:29:04;2.70;;;2.50;;
10096;SDS011;5087;42.662;23.466;2022-07-12T13:31:32;3.33;;;2.60;;
10096;SDS011;5087;42.662;23.466;2022-07-12T13:34:00;2.80;;;2.70;;
10096;SDS011;5087;42.662;23.466;2022-07-12T13:36:27;10.00;;;2.70;;
10096;SDS011;5087;42.662;23.466;2022-07-12T13:38:55;5.57;;;3.00;;
10096;SDS011;5087;42.662;23.466;2022-07-12T13:41:43;2.90;;;2.80;;
10096;SDS011;5087;42.662;23.466;2022-07-12T13:44:10;3.43;;;3.33;;
10096;SDS011;5087;42.662;23.466;2022-07-12T13:46:39;2.90;;;2.77;;
10096;SDS011;5087;42.662;23.466;2022-07-12T13:49:07;2.97;;;2.87;;
10096;SDS011;5087;42.662;23.466;2022-07-12T13:51:37;5.50;;;3.53;;
10096;SDS011;5087;42.662;23.466;2022-07-12T13:54:04;4.87;;;4.27;;
10096;SDS011;5087;42.662;23.466;2022-07-12T13:56:33;3.00;;;2.90;;
10096;SDS011;5087;42.662;23.466;2022-07-12T13:59:00;3.30;;;3.20;;
10096;SDS011;5087;42.662;23.466;2022-07-12T14:01:28;3.23;;;3.10;;
10096;SDS011;5087;42.662;23.466;2022-07-12T14:03:56;3.10;;;2.90;;
10096;SDS011;5087;42.662;23.466;2022-07-12T14:06:23;4.67;;;2.90;;
10096;SDS011;5087;42.662;23.466;2022-07-12T14:08:51;4.00;;;2.97;;
10096;SDS011;5087;42.662;23.466;2022-07-12T14:11:22;3.73;;;3.37;;
10096;SDS011;5087;42.662;23.466;2022-07-12T14:13:51;2.93;;;2.83;;
10096;SDS011;5087;42.662;23.466;2022-07-12T14:16:18;2.70;;;2.50;;
10096;SDS011;5087;42.662;23.466;2022-07-12T14:18:46;3.70;;;3.00;;
10096;SDS011;5087;42.662;23.466;2022-07-12T14:21:15;3.03;;;2.83;;
10096;SDS011;5087;42.662;23.466;2022-07-12T14:23:42;3.63;;;3.30;;
10096;SDS011;5087;42.662;23.466;2022-07-12T14:26:10;2.80;;;2.70;;
10096;SDS011;5087;42.662;23.466;2022-07-12T14:28:37;12.43;;;3.00;;
10096;SDS011;5087;42.662;23.466;2022-07-12T14:31:05;2.83;;;2.73;;
10096;SDS011;5087;42.662;23.466;2022-07-12T14:33:33;2.70;;;2.70;;
10096;SDS011;5087;42.662;23.466;2022-07-12T14:36:01;3.00;;;2.80;;
10096;SDS011;5087;42.662;23.466;2022-07-12T14:38:29;2.50;;;2.40;;
10096;SDS011;5087;42.662;23.466;2022-07-12T14:40:57;3.00;;;2.80;;
10096;SDS011;5087;42.662;23.466;2022-07-12T14:43:27;2.90;;;2.70;;
10096;SDS011;5087;42.662;23.466;2022-07-12T14:45:54;2.40;;;2.30;;
10096;SDS011;5087;42.662;23.466;2022-07-12T14:48:22;2.70;;;2.60;;
10096;SDS011;5087;42.662;23.466;2022-07-12T14:50:50;2.40;;;2.20;;
10096;SDS011;5087;42.662;23.466;2022-07-12T14:53:17;3.13;;;2.80;;
10096;SDS011;5087;42.662;23.466;2022-07-12T14:55:50;2.50;;;2.40;;
10096;SDS011;5087;42.662;23.466;2022-07-12T14:58:17;2.80;;;2.53;;
10096;SDS011;5087;42.662;23.466;2022-07-12T15:00:47;2.60;;;2.50;;
10096;SDS011;5087;42.662;23.466;2022-07-12T15:03:14;2.40;;;2.30;;
10096;SDS011;5087;42.662;23.466;2022-07-12T15:05:42;3.00;;;2.80;;
10096;SDS011;5087;42.662;23.466;2022-07-12T15:08:09;2.40;;;2.30;;
10096;SDS011;5087;42.662;23.466;2022-07-12T15:10:38;2.80;;;2.70;;
10096;SDS011;5087;42.662;23.466;2022-07-12T15:13:06;2.20;;;2.10;;
10096;SDS011;5087;42.662;23.466;2022-07-12T15:15:34;2.97;;;2.77;;